Time;durP1;ratioP1;P1;durP2;ratioP2;P2;SDS_P1;SDS_P2;PMS_P1;PMS_P2;Temp;Humidity;BMP_temperature;BMP_pressure;BME280_temperature;BME280_humidity;BME280_pressure;Samples;Min_cycle;Max_cycle;Signal;HPM_P1;HPM_P2
2022/12/05 00:01:44;;;;;;;3.40;0.90;;;;;;;8.34;60.89;100519.91;4369963;32;33727;-87
2022/12/05 00:04:13;;;;;;;0.35;0.35;;;;;;;8.37;61.03;100513.78;4352430;32;32978;-87
2022/12/05 00:06:41;;;;;;;0.20;0.20;;;;;;;8.62;60.21;100514.91;4359475;32;32945;-87
2022/12/05 00:09:11;;;;;;;0.00;0.00;;;;;;;8.31;61.25;100504.22;4370265;32;32293;-87
2022/12/05 00:11:41;;;;;;;0.00;0.00;;;;;;;8.10;62.02;100512.59;4368846;32;34611;-87
2022/12/05 00:14:10;;;;;;;0.55;0.55;;;;;;;8.11;61.62;100509.06;4371927;32;33845;-88
2022/12/05 00:16:39;;;;;;;5.72;1.75;;;;;;;8.18;61.57;100513.28;4372804;32;33604;-88
2022/12/05 00:19:09;;;;;;;0.10;0.10;;;;;;;8.10;61.85;100507.34;4371295;32;126991;-88
2022/12/05 00:21:37;;;;;;;0.90;0.70;;;;;;;8.39;60.86;100509.31;4377831;32;32805;-88
2022/12/05 00:24:07;;;;;;;0.00;0.00;;;;;;;8.24;61.44;100500.00;4360364;32;33722;-88
2022/12/05 00:26:35;;;;;;;0.90;0.90;;;;;;;7.88;62.71;100507.81;4367034;32;33849;-88
2022/12/05 00:29:03;;;;;;;0.00;0.00;;;;;;;8.09;62.19;100506.47;4371923;32;33017;-88
2022/12/05 00:31:30;;;;;;;0.28;0.28;;;;;;;8.21;61.87;100503.56;4371473;32;33659;-88
2022/12/05 00:34:01;;;;;;;0.28;0.28;;;;;;;7.95;62.56;100504.13;4357086;32;32915;-88
2022/12/05 00:36:31;;;;;;;0.52;0.40;;;;;;;8.04;62.46;100504.84;4357789;32;32626;-88
2022/12/05 00:39:03;;;;;;;0.70;0.25;;;;;;;8.01;62.21;100502.28;4345547;32;33126;-88
2022/12/05 00:41:30;;;;;;;0.10;0.10;;;;;;;7.94;62.72;100505.03;4358371;32;34228;-88
2022/12/05 00:43:59;;;;;;;0.52;0.52;;;;;;;8.00;62.69;100511.06;4358547;32;33075;-88
2022/12/05 00:46:29;;;;;;;0.10;0.10;;;;;;;8.02;62.63;100510.12;4358848;32;33648;-88
2022/12/05 00:48:58;;;;;;;0.00;0.00;;;;;;;8.36;61.43;100512.03;4369556;32;33760;-87
2022/12/05 00:51:28;;;;;;;0.17;0.17;;;;;;;8.39;61.19;100512.81;4370916;32;33223;-88
2022/12/05 00:53:58;;;;;;;0.75;0.75;;;;;;;8.15;61.90;100511.59;4370587;32;33876;-88
2022/12/05 00:56:28;;;;;;;0.80;0.80;;;;;;;8.20;61.86;100511.47;4371841;32;34274;-88
2022/12/05 00:58:57;;;;;;;0.15;0.15;;;;;;;8.33;61.36;100510.31;4368630;32;32192;-88
2022/12/05 01:01:34;;;;;;;1.02;0.90;;;;;;;8.04;62.08;100510.09;4357540;32;32787;-86
2022/12/05 01:04:07;;;;;;;0.20;0.20;;;;;;;8.09;62.32;100505.59;4371871;32;34056;-86
2022/12/05 01:06:35;;;;;;;0.25;0.25;;;;;;;8.53;60.94;100506.38;4357406;32;33588;-87
2022/12/05 01:09:04;;;;;;;0.22;0.22;;;;;;;8.14;62.29;100501.09;4359144;32;34380;-87
2022/12/05 01:11:31;;;;;;;1.05;1.05;;;;;;;7.44;64.06;100504.31;4383899;32;34589;-87
2022/12/05 01:14:09;;;;;;;0.00;0.00;;;;;;;7.48;64.55;100497.25;4371589;32;33045;-85
2022/12/05 01:16:38;;;;;;;0.50;0.50;;;;;;;7.68;64.09;100504.72;4374109;32;33823;-86
2022/12/05 01:19:14;;;;;;;0.20;0.20;;;;;;;7.46;64.53;100490.31;4364775;32;34108;-86
2022/12/05 01:21:42;;;;;;;0.30;0.30;;;;;;;7.57;64.13;100477.78;4369236;32;33619;-87
2022/12/05 01:24:11;;;;;;;0.10;0.10;;;;;;;7.65;64.17;100479.38;4362751;32;33309;-87
2022/12/05 01:26:40;;;;;;;0.10;0.10;;;;;;;7.95;63.04;100488.34;4358555;32;33978;-87
2022/12/05 01:29:09;;;;;;;0.85;0.85;;;;;;;7.66;63.90;100486.34;4367146;32;32827;-87
2022/12/05 01:31:38;;;;;;;0.00;0.00;;;;;;;7.73;63.87;100480.97;4383574;32;33628;-86
2022/12/05 01:34:07;;;;;;;0.37;0.37;;;;;;;7.63;64.32;100486.41;4370792;32;33903;-87
2022/12/05 01:36:35;;;;;;;0.20;0.20;;;;;;;7.86;63.97;100488.56;4369901;32;34630;-87
2022/12/05 01:39:03;;;;;;;0.00;0.00;;;;;;;8.05;63.15;100494.28;4377276;32;33706;-87
2022/12/05 01:41:33;;;;;;;0.30;0.30;;;;;;;8.25;62.74;100485.06;4374430;32;33953;-87
2022/12/05 01:44:00;;;;;;;0.28;0.28;;;;;;;7.72;64.60;100498.50;4356439;32;34087;-87
2022/12/05 01:46:34;;;;;;;1.27;1.17;;;;;;;7.60;64.78;100501.41;4369892;32;33759;-87
2022/12/05 01:49:13;;;;;;;0.22;0.22;;;;;;;7.86;64.16;100491.19;4357580;32;32909;-88
2022/12/05 01:51:45;;;;;;;0.00;0.00;;;;;;;8.09;63.45;100497.72;4358705;32;33230;-88
2022/12/05 01:54:14;;;;;;;1.30;1.20;;;;;;;8.26;62.81;100487.69;4374375;32;34869;-88
2022/12/05 01:56:46;;;;;;;0.22;0.22;;;;;;;7.89;64.13;100487.66;4362464;32;33920;-87
2022/12/05 01:59:15;;;;;;;0.25;0.25;;;;;;;7.84;64.14;100485.09;4356215;32;33672;-88
2022/12/05 02:01:43;;;;;;;0.00;0.00;;;;;;;7.53;64.96;100489.28;4371648;32;33555;-88
2022/12/05 02:04:12;;;;;;;0.10;0.10;;;;;;;7.78;64.31;100479.09;4377845;32;33220;-88
2022/12/05 02:06:40;;;;;;;0.00;0.00;;;;;;;7.51;65.38;100485.81;4373618;32;34521;-88
2022/12/05 02:09:07;;;;;;;0.00;0.00;;;;;;;7.74;64.71;100493.19;4372616;32;33469;-87
2022/12/05 02:11:44;;;;;;;0.00;0.00;;;;;;;7.80;64.40;100491.31;4370785;32;34318;-87
2022/12/05 02:14:17;;;;;;;0.55;0.55;;;;;;;7.84;63.95;100490.38;4359720;32;35063;-87
2022/12/05 02:17:17;;;;;;;0.28;0.10;;;;;;;8.02;63.86;100488.22;4385465;32;33814;-88
2022/12/05 02:19:54;;;;;;;0.00;0.00;;;;;;;7.85;63.90;100486.84;4326992;32;33372;-89
2022/12/05 02:23:00;;;;;;;2.00;1.85;;;;;;;7.96;63.56;100494.47;4383944;32;33680;-89
2022/12/05 02:25:50;;;;;;;0.20;0.20;;;;;;;7.96;63.57;100490.09;4377704;32;33572;-86
2022/12/05 02:28:20;;;;;;;0.00;0.00;;;;;;;7.32;66.18;100501.94;4377221;32;34534;-86
2022/12/05 02:31:03;;;;;;;0.85;0.68;;;;;;;7.15;66.54;100504.00;4371740;32;35380;-87
2022/12/05 02:33:34;;;;;;;0.08;0.08;;;;;;;7.60;65.52;100504.91;4378578;32;33545;-87
2022/12/05 02:36:14;;;;;;;0.20;0.20;;;;;;;7.75;65.06;100493.19;4383233;32;35238;-86
2022/12/05 02:38:56;;;;;;;0.45;0.45;;;;;;;7.31;66.88;100505.47;4371397;32;33939;-86
2022/12/05 02:41:36;;;;;;;1.37;0.55;;;;;;;7.53;65.92;100498.00;4346654;32;32397;-87
2022/12/05 02:44:13;;;;;;;1.85;0.60;;;;;;;7.59;65.76;100497.00;4377085;32;33886;-87
2022/12/05 02:46:41;;;;;;;0.62;0.62;;;;;;;7.79;64.92;100507.16;4359534;32;33719;-87
2022/12/05 02:49:13;;;;;;;1.02;0.88;;;;;;;7.84;64.84;100507.91;4372598;32;33858;-86
2022/12/05 02:51:44;;;;;;;0.10;0.10;;;;;;;7.90;64.52;100500.75;4370817;32;34627;-86
2022/12/05 02:54:16;;;;;;;0.35;0.30;;;;;;;7.32;66.35;100509.81;4369819;32;33238;-86
2022/12/05 02:56:45;;;;;;;2.62;0.85;;;;;;;7.38;66.54;100512.31;4371414;32;34052;-86
2022/12/05 02:59:13;;;;;;;1.42;0.45;;;;;;;7.41;66.63;100521.91;4371815;32;32522;-86
2022/12/05 03:01:49;;;;;;;0.65;0.47;;;;;;;7.63;66.06;100511.84;4360159;32;33228;-86
2022/12/05 03:04:20;;;;;;;0.28;0.28;;;;;;;7.65;65.98;100512.69;4376745;32;33444;-86
2022/12/05 03:06:49;;;;;;;0.55;0.55;;;;;;;7.71;65.92;100509.91;4377559;32;33948;-85
2022/12/05 03:09:32;;;;;;;0.30;0.30;;;;;;;7.73;65.82;100508.09;4372980;32;34589;-87
2022/12/05 03:12:07;;;;;;;0.28;0.28;;;;;;;7.19;67.85;100510.94;4360239;32;33692;-85
2022/12/05 03:14:40;;;;;;;1.65;1.30;;;;;;;7.54;66.75;100512.00;4387138;32;33975;-85
2022/12/05 03:17:09;;;;;;;;;;;;;;;7.65;66.33;100515.31;4371255;32;33902;-86
2022/12/05 03:19:48;;;;;;;0.65;0.43;;;;;;;7.42;67.25;100515.75;4370604;32;34800;-86
2022/12/05 03:22:37;;;;;;;0.68;0.68;;;;;;;7.18;68.29;100514.47;4372686;32;33327;-86
2022/12/05 03:25:05;;;;;;;0.00;0.00;;;;;;;7.60;66.73;100506.66;4377592;32;33983;-86
2022/12/05 03:27:49;;;;;;;0.17;0.17;;;;;;;7.52;67.00;100516.44;4384814;32;34070;-86
2022/12/05 03:30:20;;;;;;;0.00;0.00;;;;;;;7.47;67.45;100502.53;4358506;32;32972;-86
2022/12/05 03:32:50;;;;;;;0.43;0.43;;;;;;;7.59;66.75;100510.16;4372461;32;33412;-86
2022/12/05 03:35:26;;;;;;;0.90;0.55;;;;;;;7.21;67.73;100506.50;4376196;32;32742;-86
2022/12/05 03:37:54;;;;;;;1.15;1.12;;;;;;;7.08;69.03;100503.25;4381970;32;34698;-86
2022/12/05 03:40:32;;;;;;;0.65;0.57;;;;;;;7.22;68.22;100505.63;4377266;32;32533;-86
2022/12/05 03:43:14;;;;;;;1.92;1.33;;;;;;;7.31;68.40;100505.47;4384483;32;33548;-88
2022/12/05 03:45:57;;;;;;;;;;;;;;;7.60;67.61;100496.16;4359457;32;32762;-86
2022/12/05 03:48:38;;;;;;;0.20;0.20;;;;;;;7.69;66.98;100490.66;4376598;32;34635;-86
2022/12/05 03:51:07;;;;;;;0.43;0.43;;;;;;;7.77;66.27;100501.03;4347596;32;33222;-87
2022/12/05 03:53:40;;;;;;;0.50;0.50;;;;;;;7.72;66.66;100498.50;4357647;32;32684;-87
2022/12/05 03:56:12;;;;;;;0.30;0.30;;;;;;;7.40;67.96;100505.25;4371175;32;33645;-87
2022/12/05 03:58:51;;;;;;;0.43;0.43;;;;;;;7.18;68.57;100504.81;4357522;32;33105;-87
2022/12/05 04:01:21;;;;;;;0.88;0.88;;;;;;;7.44;68.09;100512.19;4353047;32;32504;-88
2022/12/05 04:03:54;;;;;;;1.67;1.58;;;;;;;7.78;66.95;100503.62;4375122;32;33568;-88
2022/12/05 04:06:25;;;;;;;1.12;0.95;;;;;;;7.57;67.67;100504.06;4356949;32;33806;-88
2022/12/05 04:08:59;;;;;;;1.65;1.35;;;;;;;7.52;67.73;100503.31;4358763;32;32862;-86
2022/12/05 04:11:30;;;;;;;0.68;0.68;;;;;;;7.24;68.90;100516.97;4359427;32;33484;-87
2022/12/05 04:14:09;;;;;;;0.00;0.00;;;;;;;7.29;68.72;100512.50;4370595;32;33328;-86
2022/12/05 04:17:03;;;;;;;0.30;0.30;;;;;;;7.77;67.12;100512.41;4357574;32;34073;-87
2022/12/05 04:22:33;;;;;;;0.10;0.10;;;;;;;7.64;67.66;100500.41;4366724;32;33379;-88
2022/12/05 04:28:18;;;;;;;0.15;0.15;;;;;;;7.82;66.75;100497.41;4372847;32;34323;-88
2022/12/05 04:31:03;;;;;;;0.60;0.60;;;;;;;7.34;68.28;100501.91;4384129;32;34704;-87
2022/12/05 04:33:49;;;;;;;0.95;0.90;;;;;;;7.68;67.46;100489.81;4361875;32;32915;-87
2022/12/05 04:36:21;;;;;;;0.10;0.10;;;;;;;7.29;68.85;100485.38;4370199;32;33205;-88
2022/12/05 04:39:04;;;;;;;0.00;0.00;;;;;;;7.30;68.85;100472.19;4369087;32;33840;-88
2022/12/05 04:41:37;;;;;;;0.88;0.88;;;;;;;6.95;70.26;100490.38;4347814;32;33080;-87
2022/12/05 04:44:11;;;;;;;0.77;0.65;;;;;;;6.66;71.22;100502.25;4358745;32;34602;-88
2022/12/05 04:46:41;;;;;;;0.22;0.22;;;;;;;7.10;69.77;100500.59;4359636;32;33850;-88
2022/12/05 04:49:11;;;;;;;0.65;0.65;;;;;;;6.65;71.42;100492.66;4360528;32;32952;-88
2022/12/05 04:51:39;;;;;;;1.08;1.08;;;;;;;6.80;71.16;100487.13;4371415;32;33772;-87
2022/12/05 04:54:16;;;;;;;1.60;1.02;;;;;;;6.55;72.23;100496.28;4358818;32;33778;-86
2022/12/05 04:56:45;;;;;;;1.70;1.60;;;;;;;7.10;69.95;100483.06;4371664;32;33317;-86
2022/12/05 04:59:14;;;;;;;1.75;1.25;;;;;;;7.07;70.20;100479.62;4358562;32;33373;-86
2022/12/05 05:01:47;;;;;;;0.88;0.88;;;;;;;7.13;69.93;100475.16;4376913;32;33733;-88
2022/12/05 05:04:30;;;;;;;0.62;0.62;;;;;;;6.88;70.60;100479.09;4358173;32;32754;-87
2022/12/05 05:06:58;;;;;;;0.00;0.00;;;;;;;7.06;70.13;100494.53;4369867;32;33403;-88
2022/12/05 05:09:26;;;;;;;0.25;0.25;;;;;;;7.29;69.28;100491.47;4379633;32;33920;-88
2022/12/05 05:11:54;;;;;;;0.10;0.10;;;;;;;7.18;69.84;100502.19;4357530;32;33228;-88
2022/12/05 05:14:22;;;;;;;0.20;0.20;;;;;;;7.27;69.29;100514.31;4357233;32;32756;-88
2022/12/05 05:16:50;;;;;;;0.90;0.88;;;;;;;7.10;69.88;100516.34;4358559;32;33380;-88
2022/12/05 05:19:17;;;;;;;0.65;0.65;;;;;;;7.19;69.84;100511.81;4372833;32;32836;-88
2022/12/05 05:21:45;;;;;;;0.37;0.37;;;;;;;7.32;69.40;100512.44;4382157;32;34371;-87
2022/12/05 05:24:17;;;;;;;1.10;1.00;;;;;;;7.55;68.48;100508.47;4371818;32;34158;-87
2022/12/05 05:26:45;;;;;;;0.35;0.35;;;;;;;7.44;68.91;100509.56;4376514;32;34580;-86
2022/12/05 05:29:13;;;;;;;0.00;0.00;;;;;;;6.82;70.65;100515.97;4373864;32;33776;-87
2022/12/05 05:31:41;;;;;;;0.28;0.28;;;;;;;7.05;70.35;100507.69;4370470;32;33671;-87
2022/12/05 05:34:10;;;;;;;0.73;0.73;;;;;;;7.10;70.15;100516.34;4375604;32;33825;-87
2022/12/05 05:36:38;;;;;;;0.30;0.30;;;;;;;7.51;68.68;100510.34;4367772;32;32362;-87
2022/12/05 05:39:11;;;;;;;0.75;0.47;;;;;;;7.22;69.36;100513.53;4375342;32;34604;-88
2022/12/05 05:41:39;;;;;;;0.25;0.25;;;;;;;7.21;69.18;100508.28;4375739;32;32894;-87
2022/12/05 05:44:07;;;;;;;0.13;0.13;;;;;;;7.85;67.56;100502.63;4380405;32;33164;-88
2022/12/05 05:46:34;;;;;;;0.75;0.75;;;;;;;7.64;67.68;100492.53;4360543;32;33644;-88
2022/12/05 05:49:03;;;;;;;0.50;0.40;;;;;;;7.27;69.43;100511.66;4363409;32;32599;-87
2022/12/05 05:51:31;;;;;;;1.73;1.60;;;;;;;7.08;70.29;100515.53;4360929;32;32940;-89
2022/12/05 05:53:59;;;;;;;0.03;0.03;;;;;;;7.41;69.09;100508.78;4361103;32;33701;-89
2022/12/05 05:56:27;;;;;;;0.57;0.57;;;;;;;7.35;69.22;100511.50;4382528;32;33919;-88
2022/12/05 05:58:59;;;;;;;1.35;1.25;;;;;;;7.32;69.56;100515.06;4361131;32;32788;-87
2022/12/05 06:01:28;;;;;;;0.80;0.80;;;;;;;7.51;68.88;100517.34;4362128;32;33291;-87
2022/12/05 06:03:57;;;;;;;0.90;0.90;;;;;;;7.79;67.82;100517.66;4354306;32;32905;-87
2022/12/05 06:06:25;;;;;;;1.85;1.73;;;;;;;7.63;68.35;100522.34;4388130;32;33449;-88
2022/12/05 06:08:56;;;;;;;0.30;0.30;;;;;;;7.69;68.17;100531.00;4353830;32;33665;-87
2022/12/05 06:11:25;;;;;;;1.83;0.75;;;;;;;7.65;68.20;100524.06;4363230;32;33049;-87
2022/12/05 06:13:54;;;;;;;0.30;0.30;;;;;;;7.79;67.76;100529.03;4350672;32;31502;-87
2022/12/05 06:16:23;;;;;;;1.75;1.37;;;;;;;7.59;68.31;100529.41;4363816;32;32942;-87
2022/12/05 06:18:52;;;;;;;1.45;1.00;;;;;;;7.44;68.89;100533.22;4377599;32;34373;-88
2022/12/05 06:21:20;;;;;;;1.20;0.85;;;;;;;8.02;66.90;100531.16;4376611;32;33381;-88
2022/12/05 06:23:48;;;;;;;1.33;1.25;;;;;;;7.73;67.78;100526.50;4397622;32;33742;-88
2022/12/05 06:26:19;;;;;;;0.15;0.15;;;;;;;7.85;67.43;100534.16;4350352;32;32042;-88
2022/12/05 06:28:47;;;;;;;0.00;0.00;;;;;;;7.95;67.13;100535.69;4384427;32;31463;-88
2022/12/05 06:31:21;;;;;;;0.40;0.40;;;;;;;7.75;67.89;100530.00;4374778;32;33064;-88
2022/12/05 06:34:16;;;;;;;0.65;0.65;;;;;;;7.48;68.70;100543.69;4360438;32;32626;-87
2022/12/05 06:36:46;;;;;;;0.13;0.13;;;;;;;7.34;69.53;100542.16;4374362;32;33580;-88
2022/12/05 06:39:14;;;;;;;0.55;0.55;;;;;;;7.30;69.56;100540.50;4372635;32;33684;-87
2022/12/05 06:41:42;;;;;;;0.22;0.22;;;;;;;7.47;68.93;100547.22;4372398;32;33867;-88
2022/12/05 06:44:10;;;;;;;0.93;0.93;;;;;;;7.67;68.45;100542.41;4371939;32;33754;-88
2022/12/05 06:46:38;;;;;;;0.00;0.00;;;;;;;7.51;68.88;100544.50;4382111;32;32188;-88
2022/12/05 06:49:08;;;;;;;0.80;0.80;;;;;;;7.65;68.62;100547.72;4361298;32;32878;-88
2022/12/05 06:51:37;;;;;;;0.75;0.75;;;;;;;7.65;68.58;100549.47;4373613;32;34726;-89
2022/12/05 06:54:04;;;;;;;0.08;0.08;;;;;;;7.85;67.83;100544.69;4372148;32;32615;-88
2022/12/05 06:56:32;;;;;;;0.85;0.85;;;;;;;7.81;68.23;100556.16;4370450;32;33002;-88
2022/12/05 06:59:00;;;;;;;0.43;0.43;;;;;;;7.47;69.27;100548.06;4359247;32;33650;-88
2022/12/05 07:01:37;;;;;;;0.57;0.57;;;;;;;7.22;69.98;100550.28;4376435;32;33030;-88
2022/12/05 07:04:26;;;;;;;1.15;0.98;;;;;;;7.32;69.55;100553.62;4353814;32;33942;-88
2022/12/05 07:06:55;;;;;;;0.65;0.65;;;;;;;7.68;68.50;100559.91;4360846;32;32505;-88
2022/12/05 07:12:12;;;;;;;0.73;0.73;;;;;;;7.66;68.58;100566.97;4361029;32;33215;-88
2022/12/05 07:14:39;;;;;;;1.40;1.00;;;;;;;7.68;68.77;100570.44;4371135;32;34078;-88
2022/12/05 07:17:18;;;;;;;1.92;1.70;;;;;;;7.84;68.30;100574.50;4375309;32;31473;-88
2022/12/05 07:19:48;;;;;;;0.30;0.30;;;;;;;8.07;67.31;100576.66;4365058;32;32705;-88
2022/12/05 07:22:17;;;;;;;0.90;0.90;;;;;;;7.85;67.92;100576.22;4372798;32;33618;-88
2022/12/05 07:24:45;;;;;;;0.22;0.22;;;;;;;7.50;69.34;100583.91;4370448;32;32643;-88
2022/12/05 07:27:14;;;;;;;0.93;0.93;;;;;;;7.66;68.86;100582.75;4360552;32;32864;-89
2022/12/05 07:29:41;;;;;;;0.37;0.37;;;;;;;7.57;69.61;100575.03;4369985;32;32632;-88
2022/12/05 07:32:09;;;;;;;1.55;1.45;;;;;;;8.11;67.89;100572.19;4357347;32;32194;-88
2022/12/05 07:34:37;;;;;;;0.00;0.00;;;;;;;8.06;67.53;100574.91;4373763;32;33683;-88
2022/12/05 07:37:06;;;;;;;0.20;0.20;;;;;;;8.20;66.85;100577.25;4384131;32;33150;-88
2022/12/05 07:39:33;;;;;;;0.93;0.62;;;;;;;8.14;66.93;100580.88;4360061;32;33124;-89
2022/12/05 07:42:01;;;;;;;0.35;0.35;;;;;;;8.12;66.94;100584.47;4356463;32;32260;-88
2022/12/05 07:44:29;;;;;;;0.37;0.37;;;;;;;8.10;66.96;100594.13;4357804;32;32445;-88
2022/12/05 07:46:57;;;;;;;0.40;0.40;;;;;;;8.33;66.42;100594.50;4358716;32;33204;-88
2022/12/05 07:49:25;;;;;;;0.52;0.50;;;;;;;8.21;66.79;100589.50;4381240;32;34547;-88
2022/12/05 07:51:53;;;;;;;1.00;0.68;;;;;;;7.72;68.38;100595.75;4372345;32;33465;-88
2022/12/05 07:54:21;;;;;;;0.05;0.05;;;;;;;7.52;68.95;100595.28;4372000;32;34161;-88
2022/12/05 07:56:49;;;;;;;1.00;0.93;;;;;;;7.72;68.38;100598.41;4358014;32;32940;-89
2022/12/05 07:59:16;;;;;;;1.15;1.15;;;;;;;7.64;68.98;100605.56;4383598;32;34331;-87
2022/12/05 08:01:44;;;;;;;0.85;0.85;;;;;;;8.17;67.64;100598.38;4370397;32;34370;-88
2022/12/05 08:04:12;;;;;;;0.35;0.35;;;;;;;8.33;66.70;100605.03;4353515;32;32709;-88
2022/12/05 08:06:42;;;;;;;0.45;0.45;;;;;;;7.96;67.65;100603.16;4352477;32;32788;-88
2022/12/05 08:09:10;;;;;;;0.80;0.73;;;;;;;8.12;67.51;100595.00;4382848;32;32459;-88
2022/12/05 08:11:38;;;;;;;0.17;0.17;;;;;;;7.70;68.70;100611.56;4383684;32;34015;-89
2022/12/05 08:14:06;;;;;;;0.00;0.00;;;;;;;8.32;66.58;100598.03;4369846;32;32709;-88
2022/12/05 08:16:34;;;;;;;0.43;0.43;;;;;;;8.03;67.28;100611.81;4366283;32;32013;-88
2022/12/05 08:19:05;;;;;;;0.40;0.40;;;;;;;7.76;68.48;100614.97;4362427;32;31187;-89
2022/12/05 08:21:33;;;;;;;1.02;0.90;;;;;;;7.65;69.00;100610.81;4359034;32;33717;-89
2022/12/05 08:24:04;;;;;;;0.00;0.00;;;;;;;7.96;68.25;100611.06;4362664;32;34363;-88
2022/12/05 08:26:38;;;;;;;0.65;0.65;;;;;;;7.88;67.97;100602.47;4361054;32;32327;-89
2022/12/05 08:29:11;;;;;;;0.65;0.65;;;;;;;8.26;67.12;100607.81;4371020;32;34430;-89
2022/12/05 08:31:43;;;;;;;0.08;0.08;;;;;;;8.32;66.61;100608.56;4371631;32;32634;-89
2022/12/05 08:34:11;;;;;;;0.10;0.10;;;;;;;8.10;67.21;100609.91;4370540;32;33525;-89
2022/12/05 08:36:40;;;;;;;0.65;0.65;;;;;;;8.10;67.11;100609.91;4360105;32;32911;-88
2022/12/05 08:39:13;;;;;;;0.20;0.20;;;;;;;8.62;65.74;100606.19;4372664;32;33730;-88
2022/12/05 08:41:42;;;;;;;1.05;1.05;;;;;;;8.52;65.58;100604.66;4369459;32;34409;-88
2022/12/05 08:44:15;;;;;;;0.68;0.68;;;;;;;8.22;67.04;100601.78;4345057;32;33933;-89
2022/12/05 08:46:44;;;;;;;0.52;0.52;;;;;;;7.96;67.61;100611.06;4357714;32;32830;-86
2022/12/05 08:49:13;;;;;;;0.00;0.00;;;;;;;8.05;67.53;100617.03;4368869;32;34571;-86
2022/12/05 08:51:41;;;;;;;0.90;0.90;;;;;;;7.98;68.07;100613.69;4371867;32;33860;-87
2022/12/05 08:54:09;;;;;;;0.75;0.75;;;;;;;7.69;68.43;100622.09;4371262;32;33564;-86
2022/12/05 08:56:37;;;;;;;0.82;0.75;;;;;;;7.65;68.87;100620.44;4368637;32;34061;-87
2022/12/05 08:59:05;;;;;;;0.40;0.40;;;;;;;8.05;68.21;100617.91;4377240;32;34427;-86
2022/12/05 09:01:37;;;;;;;0.95;0.95;;;;;;;8.42;66.54;100607.50;4361478;32;33662;-86
2022/12/05 09:04:05;;;;;;;0.87;0.87;;;;;;;8.56;66.05;100607.19;4373094;32;32845;-87
2022/12/05 09:06:33;;;;;;;0.82;0.82;;;;;;;8.64;65.64;100605.25;4368610;32;33754;-86
2022/12/05 09:09:05;;;;;;;3.60;0.70;;;;;;;8.17;67.02;100603.66;4370799;32;33912;-87
2022/12/05 09:11:35;;;;;;;0.77;0.75;;;;;;;8.41;67.07;100611.03;4385250;32;34333;-87
2022/12/05 09:14:04;;;;;;;0.50;0.43;;;;;;;8.56;66.36;100604.56;4357457;32;33783;-87
2022/12/05 09:16:34;;;;;;;0.00;0.00;;;;;;;8.53;65.88;100595.88;4372473;32;33385;-87
2022/12/05 09:19:14;;;;;;;1.35;1.02;;;;;;;8.30;66.90;100602.47;4364555;32;33806;-86
2022/12/05 09:21:42;;;;;;;0.62;0.43;;;;;;;8.88;64.76;100598.56;4376207;32;33594;-87
2022/12/05 09:24:11;;;;;;;0.77;0.55;;;;;;;8.84;64.62;100596.91;4370519;32;33898;-86
2022/12/05 09:26:42;;;;;;;0.35;0.35;;;;;;;8.31;66.37;100601.59;4373558;32;32598;-87
2022/12/05 09:29:11;;;;;;;0.28;0.28;;;;;;;8.07;66.74;100592.44;4357163;32;32738;-87
2022/12/05 09:31:46;;;;;;;0.00;0.00;;;;;;;8.30;66.78;100605.09;4364365;32;34855;-86
2022/12/05 09:34:14;;;;;;;0.37;0.37;;;;;;;8.30;66.45;100596.34;4383992;32;34106;-87
2022/12/05 09:36:42;;;;;;;0.40;0.40;;;;;;;8.52;65.92;100594.13;4374813;32;32521;-87
2022/12/05 09:39:11;;;;;;;0.20;0.20;;;;;;;8.52;65.82;100588.88;4344279;32;33466;-87
2022/12/05 09:42:03;;;;;;;0.25;0.25;;;;;;;8.55;66.00;100588.81;4371485;32;33647;-87
2022/12/05 09:44:43;;;;;;;0.10;0.10;;;;;;;8.42;66.81;100596.97;4356833;32;32267;-86
2022/12/05 09:47:23;;;;;;;0.65;0.65;;;;;;;8.96;64.66;100591.31;4382111;32;33232;-87
2022/12/05 09:50:09;;;;;;;0.60;0.60;;;;;;;8.61;66.12;100593.94;4371295;32;34170;-86
2022/12/05 09:52:41;;;;;;;0.60;0.60;;;;;;;8.50;66.16;100598.56;4370146;32;34277;-87
2022/12/05 09:55:10;;;;;;;;;;;;;;;8.85;65.08;100593.34;4369557;32;34033;-87
2022/12/05 09:57:43;;;;;;;1.50;1.40;;;;;;;8.58;65.85;100594.00;4370412;32;33147;-86
2022/12/05 10:00:11;;;;;;;4.57;1.70;;;;;;;8.42;66.34;100583.81;4363155;32;32404;-87
2022/12/05 10:02:53;;;;;;;0.00;0.00;;;;;;;8.61;65.70;100578.12;4357227;32;33921;-89
2022/12/05 10:05:34;;;;;;;0.82;0.82;;;;;;;8.15;67.33;100571.22;4345740;32;33137;-86
2022/12/05 10:08:19;;;;;;;0.50;0.50;;;;;;;8.93;65.05;100559.81;4346128;32;32220;-86
2022/12/05 10:11:00;;;;;;;0.60;0.60;;;;;;;8.27;66.66;100552.56;4384181;32;33450;-86
2022/12/05 10:13:37;;;;;;;0.67;0.67;;;;;;;8.39;66.63;100549.66;4376829;32;32820;-87
2022/12/05 10:16:12;;;;;;;1.40;0.50;;;;;;;8.61;65.97;100560.56;4383351;32;33851;-86
2022/12/05 10:18:42;;;;;;;0.52;0.52;;;;;;;8.84;65.56;100554.75;4347102;32;32798;-86
2022/12/05 10:21:21;;;;;;;0.65;0.65;;;;;;;8.56;66.23;100551.06;4361909;32;33193;-86
2022/12/05 10:23:54;;;;;;;0.37;0.37;;;;;;;8.53;66.50;100540.59;4357910;32;33731;-87
2022/12/05 10:26:45;;;;;;;1.92;1.75;;;;;;;8.82;65.86;100538.13;4360030;32;33819;-87
2022/12/05 10:29:49;;;;;;;0.62;0.62;;;;;;;8.30;67.25;100536.69;4371204;32;32725;-86
2022/12/05 10:32:27;;;;;;;0.62;0.52;;;;;;;8.33;67.00;100531.34;4346467;32;32888;-86
2022/12/05 10:35:09;;;;;;;0.82;0.82;;;;;;;8.55;66.89;100520.38;4369365;32;33685;-86
2022/12/05 10:37:37;;;;;;;1.45;0.90;;;;;;;8.74;66.83;100516.41;4371617;32;33685;-86
2022/12/05 10:40:10;;;;;;;0.40;0.40;;;;;;;8.56;66.45;100519.47;4371780;32;33386;-86
2022/12/05 10:42:38;;;;;;;0.70;0.62;;;;;;;8.83;65.58;100521.44;4374274;32;34328;-86
2022/12/05 10:45:12;;;;;;;1.60;0.60;;;;;;;8.31;66.93;100527.91;4359335;32;34064;-87
2022/12/05 10:47:40;;;;;;;0.70;0.65;;;;;;;8.52;67.08;100528.34;4356421;32;32937;-87
2022/12/05 10:50:29;;;;;;;0.98;0.65;;;;;;;8.82;66.36;100535.47;4358691;32;33946;-87
2022/12/05 10:52:59;;;;;;;2.05;1.95;;;;;;;9.36;64.32;100534.97;4358229;32;33344;-87
2022/12/05 10:55:50;;;;;;;0.85;0.85;;;;;;;9.33;63.98;100532.41;4358059;32;33911;-86
2022/12/05 10:58:37;;;;;;;0.80;0.80;;;;;;;9.19;64.05;100521.38;4382654;32;34636;-86
2022/12/05 11:01:07;;;;;;;1.40;0.93;;;;;;;9.16;64.50;100518.81;4373110;32;32795;-87
2022/12/05 11:03:39;;;;;;;0.82;0.82;;;;;;;9.28;64.16;100522.91;4371278;32;33041;-87
2022/12/05 11:06:23;;;;;;;2.20;2.03;;;;;;;9.05;64.46;100518.25;4347808;32;33978;-87
2022/12/05 11:08:54;;;;;;;2.33;1.37;;;;;;;8.88;65.62;100508.16;4371038;32;33517;-87
2022/12/05 11:11:32;;;;;;;0.40;0.40;;;;;;;8.71;65.65;100511.19;4361323;32;33717;-87
2022/12/05 11:14:22;;;;;;;1.27;1.27;;;;;;;9.05;65.03;100502.44;4373000;32;33137;-86
2022/12/05 11:16:53;;;;;;;1.17;1.17;;;;;;;9.23;64.21;100494.03;4370376;32;33677;-86
2022/12/05 11:19:21;;;;;;;1.17;1.07;;;;;;;9.07;64.79;100501.50;4370438;32;33611;-86
2022/12/05 11:21:49;;;;;;;1.00;1.00;;;;;;;9.41;63.97;100504.09;4357759;32;32922;-87
2022/12/05 11:24:32;;;;;;;1.48;1.37;;;;;;;9.01;65.80;100503.41;4370780;32;33806;-86
2022/12/05 11:27:26;;;;;;;1.50;1.40;;;;;;;9.20;64.34;100504.66;4356882;32;32911;-86
2022/12/05 11:30:09;;;;;;;0.98;0.98;;;;;;;9.18;64.51;100502.06;4371686;32;33458;-87
2022/12/05 11:32:36;;;;;;;0.13;0.13;;;;;;;9.51;63.25;100494.16;4366264;32;33484;-87
2022/12/05 11:35:10;;;;;;;0.30;0.30;;;;;;;9.56;63.17;100488.75;4353128;32;34039;-87
2022/12/05 11:38:01;;;;;;;0.45;0.45;;;;;;;9.71;62.63;100485.66;4374362;32;32963;-86
2022/12/05 11:40:56;;;;;;;0.52;0.52;;;;;;;9.64;62.76;100486.75;4372497;32;33725;-87
2022/12/05 11:43:24;;;;;;;0.65;0.65;;;;;;;9.46;63.33;100470.56;4374262;32;32696;-86
2022/12/05 11:46:03;;;;;;;0.93;0.93;;;;;;;9.47;63.56;100467.00;4374217;32;33163;-88
2022/12/05 11:48:47;;;;;;;4.50;2.40;;;;;;;9.49;63.42;100469.59;4363425;32;32664;-88
2022/12/05 11:51:33;;;;;;;0.55;0.55;;;;;;;9.06;65.46;100475.19;4370757;32;32414;-88
2022/12/05 11:54:07;;;;;;;0.57;0.50;;;;;;;9.55;63.61;100460.66;4359915;32;32568;-88
2022/12/05 11:56:47;;;;;;;0.77;0.77;;;;;;;9.59;63.32;100459.62;4381404;32;34144;-88
2022/12/05 11:59:30;;;;;;;0.95;0.95;;;;;;;9.15;64.36;100451.22;4348468;32;34644;-88
2022/12/05 12:02:07;;;;;;;0.43;0.43;;;;;;;9.59;63.01;100465.81;4378029;32;34491;-88
2022/12/05 12:04:46;;;;;;;0.73;0.70;;;;;;;9.34;63.56;100460.34;4384298;32;32457;-87
2022/12/05 12:07:26;;;;;;;0.88;0.88;;;;;;;9.84;62.49;100450.09;4353377;32;33447;-88
2022/12/05 12:10:08;;;;;;;0.50;0.50;;;;;;;9.63;63.09;100462.12;4370922;32;33253;-88